sensor_id;sensor_type;location;lat;lon;timestamp;P1;durP1;ratioP1;P2;durP2;ratioP2
15858;SDS011;8029;52.202;7.308;2023-04-29T00:00:10;17.17;;;11.95;;
15858;SDS011;8029;52.202;7.308;2023-04-29T00:02:36;15.40;;;11.50;;
15858;SDS011;8029;52.202;7.308;2023-04-29T00:05:02;14.48;;;11.75;;
15858;SDS011;8029;52.202;7.308;2023-04-29T00:07:29;13.10;;;10.95;;
15858;SDS011;8029;52.202;7.308;2023-04-29T00:09:56;16.08;;;11.00;;
15858;SDS011;8029;52.202;7.308;2023-04-29T00:12:22;19.08;;;12.75;;
15858;SDS011;8029;52.202;7.308;2023-04-29T00:14:48;15.27;;;12.57;;
15858;SDS011;8029;52.202;7.308;2023-04-29T00:17:14;13.60;;;10.55;;
15858;SDS011;8029;52.202;7.308;2023-04-29T00:19:41;17.27;;;12.52;;
15858;SDS011;8029;52.202;7.308;2023-04-29T00:22:08;17.88;;;12.43;;
15858;SDS011;8029;52.202;7.308;2023-04-29T00:24:34;9.90;;;8.88;;
15858;SDS011;8029;52.202;7.308;2023-04-29T00:27:00;12.82;;;11.52;;
15858;SDS011;8029;52.202;7.308;2023-04-29T00:29:26;14.88;;;11.88;;
15858;SDS011;8029;52.202;7.308;2023-04-29T00:31:52;15.93;;;11.73;;
15858;SDS011;8029;52.202;7.308;2023-04-29T00:34:18;12.38;;;10.48;;
15858;SDS011;8029;52.202;7.308;2023-04-29T00:36:45;12.60;;;11.13;;
15858;SDS011;8029;52.202;7.308;2023-04-29T00:39:13;10.98;;;9.82;;
15858;SDS011;8029;52.202;7.308;2023-04-29T00:41:39;13.07;;;11.68;;
15858;SDS011;8029;52.202;7.308;2023-04-29T00:44:05;14.18;;;12.27;;
15858;SDS011;8029;52.202;7.308;2023-04-29T00:46:31;19.23;;;12.25;;
15858;SDS011;8029;52.202;7.308;2023-04-29T00:48:57;13.43;;;12.07;;
15858;SDS011;8029;52.202;7.308;2023-04-29T00:51:24;12.93;;;11.38;;
15858;SDS011;8029;52.202;7.308;2023-04-29T00:53:51;14.90;;;12.35;;
15858;SDS011;8029;52.202;7.308;2023-04-29T00:56:17;15.70;;;12.68;;
15858;SDS011;8029;52.202;7.308;2023-04-29T00:58:45;18.73;;;11.82;;
15858;SDS011;8029;52.202;7.308;2023-04-29T01:01:15;13.32;;;11.90;;
15858;SDS011;8029;52.202;7.308;2023-04-29T01:03:42;12.55;;;10.98;;
15858;SDS011;8029;52.202;7.308;2023-04-29T01:06:12;14.52;;;11.85;;
15858;SDS011;8029;52.202;7.308;2023-04-29T01:08:47;17.25;;;13.13;;
15858;SDS011;8029;52.202;7.308;2023-04-29T01:11:18;17.98;;;15.77;;
15858;SDS011;8029;52.202;7.308;2023-04-29T01:13:53;14.35;;;12.85;;
15858;SDS011;8029;52.202;7.308;2023-04-29T01:16:29;17.55;;;12.32;;
15858;SDS011;8029;52.202;7.308;2023-04-29T01:19:00;18.80;;;12.38;;
15858;SDS011;8029;52.202;7.308;2023-04-29T01:21:29;16.08;;;13.95;;
15858;SDS011;8029;52.202;7.308;2023-04-29T01:23:56;14.02;;;12.63;;
15858;SDS011;8029;52.202;7.308;2023-04-29T01:26:25;19.90;;;13.63;;
15858;SDS011;8029;52.202;7.308;2023-04-29T01:31:21;16.90;;;12.98;;
15858;SDS011;8029;52.202;7.308;2023-04-29T01:36:26;16.40;;;14.18;;
15858;SDS011;8029;52.202;7.308;2023-04-29T01:39:08;14.20;;;12.75;;
15858;SDS011;8029;52.202;7.308;2023-04-29T01:44:07;17.27;;;13.07;;
15858;SDS011;8029;52.202;7.308;2023-04-29T01:46:33;14.25;;;12.55;;
15858;SDS011;8029;52.202;7.308;2023-04-29T01:49:00;16.75;;;14.55;;
15858;SDS011;8029;52.202;7.308;2023-04-29T01:51:28;22.02;;;15.48;;
15858;SDS011;8029;52.202;7.308;2023-04-29T01:53:55;17.17;;;13.10;;
15858;SDS011;8029;52.202;7.308;2023-04-29T01:56:23;23.65;;;12.90;;
15858;SDS011;8029;52.202;7.308;2023-04-29T01:58:49;18.55;;;14.43;;
15858;SDS011;8029;52.202;7.308;2023-04-29T02:01:15;18.33;;;14.15;;
15858;SDS011;8029;52.202;7.308;2023-04-29T02:03:41;21.55;;;15.55;;
15858;SDS011;8029;52.202;7.308;2023-04-29T02:06:08;15.10;;;12.68;;
15858;SDS011;8029;52.202;7.308;2023-04-29T02:08:34;14.20;;;12.82;;
15858;SDS011;8029;52.202;7.308;2023-04-29T02:11:00;13.18;;;11.80;;
15858;SDS011;8029;52.202;7.308;2023-04-29T02:13:33;13.02;;;11.80;;
15858;SDS011;8029;52.202;7.308;2023-04-29T02:18:34;14.48;;;13.02;;
15858;SDS011;8029;52.202;7.308;2023-04-29T02:21:00;16.38;;;12.68;;
15858;SDS011;8029;52.202;7.308;2023-04-29T02:23:33;15.63;;;12.20;;
15858;SDS011;8029;52.202;7.308;2023-04-29T02:25:59;13.70;;;10.60;;
15858;SDS011;8029;52.202;7.308;2023-04-29T02:28:34;16.42;;;12.93;;
15858;SDS011;8029;52.202;7.308;2023-04-29T02:31:01;11.93;;;9.73;;
15858;SDS011;8029;52.202;7.308;2023-04-29T02:33:30;14.13;;;11.40;;
15858;SDS011;8029;52.202;7.308;2023-04-29T02:35:56;13.15;;;11.68;;
15858;SDS011;8029;52.202;7.308;2023-04-29T02:38:26;20.17;;;12.32;;
15858;SDS011;8029;52.202;7.308;2023-04-29T02:40:55;10.95;;;9.82;;
15858;SDS011;8029;52.202;7.308;2023-04-29T02:43:24;13.00;;;11.27;;
15858;SDS011;8029;52.202;7.308;2023-04-29T02:45:58;15.13;;;10.15;;
15858;SDS011;8029;52.202;7.308;2023-04-29T02:48:37;11.63;;;10.35;;
15858;SDS011;8029;52.202;7.308;2023-04-29T02:51:05;14.25;;;10.85;;
15858;SDS011;8029;52.202;7.308;2023-04-29T02:53:37;11.30;;;10.20;;
15858;SDS011;8029;52.202;7.308;2023-04-29T02:56:08;11.50;;;10.15;;
15858;SDS011;8029;52.202;7.308;2023-04-29T02:58:58;11.68;;;10.15;;
15858;SDS011;8029;52.202;7.308;2023-04-29T03:01:29;13.45;;;11.27;;
15858;SDS011;8029;52.202;7.308;2023-04-29T03:04:11;10.65;;;9.43;;
15858;SDS011;8029;52.202;7.308;2023-04-29T03:06:40;13.02;;;10.60;;
15858;SDS011;8029;52.202;7.308;2023-04-29T03:09:09;12.65;;;10.43;;
15858;SDS011;8029;52.202;7.308;2023-04-29T03:11:47;11.82;;;10.50;;
15858;SDS011;8029;52.202;7.308;2023-04-29T03:14:14;11.80;;;9.82;;
15858;SDS011;8029;52.202;7.308;2023-04-29T03:16:42;14.07;;;9.07;;
15858;SDS011;8029;52.202;7.308;2023-04-29T03:19:16;13.23;;;10.52;;
15858;SDS011;8029;52.202;7.308;2023-04-29T03:21:45;12.88;;;10.38;;
15858;SDS011;8029;52.202;7.308;2023-04-29T03:24:11;12.85;;;10.68;;
15858;SDS011;8029;52.202;7.308;2023-04-29T03:26:37;11.35;;;10.27;;
15858;SDS011;8029;52.202;7.308;2023-04-29T03:29:12;12.73;;;10.02;;
15858;SDS011;8029;52.202;7.308;2023-04-29T03:31:41;14.98;;;10.63;;
15858;SDS011;8029;52.202;7.308;2023-04-29T03:34:07;15.95;;;10.05;;
15858;SDS011;8029;52.202;7.308;2023-04-29T03:36:34;11.90;;;10.23;;
15858;SDS011;8029;52.202;7.308;2023-04-29T03:39:08;13.02;;;9.68;;
15858;SDS011;8029;52.202;7.308;2023-04-29T03:41:36;11.82;;;9.90;;
15858;SDS011;8029;52.202;7.308;2023-04-29T03:44:04;12.95;;;10.13;;
15858;SDS011;8029;52.202;7.308;2023-04-29T03:46:31;14.38;;;10.80;;
15858;SDS011;8029;52.202;7.308;2023-04-29T03:49:00;12.68;;;11.30;;
15858;SDS011;8029;52.202;7.308;2023-04-29T03:51:26;13.07;;;10.35;;
15858;SDS011;8029;52.202;7.308;2023-04-29T03:53:53;15.05;;;11.27;;
15858;SDS011;8029;52.202;7.308;2023-04-29T03:56:21;11.95;;;10.63;;
15858;SDS011;8029;52.202;7.308;2023-04-29T03:58:49;13.95;;;10.95;;
15858;SDS011;8029;52.202;7.308;2023-04-29T04:01:15;12.90;;;10.73;;
15858;SDS011;8029;52.202;7.308;2023-04-29T04:03:41;14.10;;;11.15;;
15858;SDS011;8029;52.202;7.308;2023-04-29T04:06:07;11.77;;;10.48;;
15858;SDS011;8029;52.202;7.308;2023-04-29T04:08:33;11.38;;;8.93;;
15858;SDS011;8029;52.202;7.308;2023-04-29T04:11:00;12.50;;;11.20;;
15858;SDS011;8029;52.202;7.308;2023-04-29T04:13:32;16.30;;;11.95;;
15858;SDS011;8029;52.202;7.308;2023-04-29T04:16:00;12.50;;;11.20;;
15858;SDS011;8029;52.202;7.308;2023-04-29T04:18:27;14.15;;;11.05;;
15858;SDS011;8029;52.202;7.308;2023-04-29T04:20:53;13.10;;;11.25;;
15858;SDS011;8029;52.202;7.308;2023-04-29T04:23:19;20.23;;;12.85;;
15858;SDS011;8029;52.202;7.308;2023-04-29T04:25:46;27.58;;;13.68;;
15858;SDS011;8029;52.202;7.308;2023-04-29T04:28:17;29.45;;;11.25;;
15858;SDS011;8029;52.202;7.308;2023-04-29T04:30:44;14.13;;;11.98;;
15858;SDS011;8029;52.202;7.308;2023-04-29T04:33:12;15.90;;;12.55;;
15858;SDS011;8029;52.202;7.308;2023-04-29T04:35:43;13.57;;;12.18;;
15858;SDS011;8029;52.202;7.308;2023-04-29T04:38:09;14.43;;;12.02;;
15858;SDS011;8029;52.202;7.308;2023-04-29T04:40:40;14.60;;;13.10;;
15858;SDS011;8029;52.202;7.308;2023-04-29T04:43:09;16.80;;;11.73;;
15858;SDS011;8029;52.202;7.308;2023-04-29T04:45:35;13.48;;;12.02;;
15858;SDS011;8029;52.202;7.308;2023-04-29T04:48:02;26.05;;;13.50;;
15858;SDS011;8029;52.202;7.308;2023-04-29T04:50:30;12.05;;;10.93;;
15858;SDS011;8029;52.202;7.308;2023-04-29T04:53:05;12.93;;;10.48;;
15858;SDS011;8029;52.202;7.308;2023-04-29T04:55:31;11.35;;;10.25;;
15858;SDS011;8029;52.202;7.308;2023-04-29T04:57:58;11.95;;;10.70;;
15858;SDS011;8029;52.202;7.308;2023-04-29T05:00:24;12.05;;;10.85;;
15858;SDS011;8029;52.202;7.308;2023-04-29T05:02:50;11.95;;;10.73;;
15858;SDS011;8029;52.202;7.308;2023-04-29T05:05:16;15.57;;;12.57;;
15858;SDS011;8029;52.202;7.308;2023-04-29T05:07:42;14.57;;;11.80;;
15858;SDS011;8029;52.202;7.308;2023-04-29T05:10:08;14.60;;;12.43;;
15858;SDS011;8029;52.202;7.308;2023-04-29T05:12:35;13.95;;;11.32;;
15858;SDS011;8029;52.202;7.308;2023-04-29T05:15:01;13.55;;;12.15;;
15858;SDS011;8029;52.202;7.308;2023-04-29T05:17:28;14.55;;;13.02;;
15858;SDS011;8029;52.202;7.308;2023-04-29T05:19:54;13.05;;;11.65;;
15858;SDS011;8029;52.202;7.308;2023-04-29T05:22:21;14.32;;;12.65;;
15858;SDS011;8029;52.202;7.308;2023-04-29T05:24:47;20.60;;;13.25;;
15858;SDS011;8029;52.202;7.308;2023-04-29T05:27:13;21.83;;;17.90;;
15858;SDS011;8029;52.202;7.308;2023-04-29T05:29:39;21.38;;;14.02;;
15858;SDS011;8029;52.202;7.308;2023-04-29T05:32:05;13.00;;;11.60;;
15858;SDS011;8029;52.202;7.308;2023-04-29T05:34:31;16.42;;;14.00;;
15858;SDS011;8029;52.202;7.308;2023-04-29T05:36:57;24.17;;;12.55;;
15858;SDS011;8029;52.202;7.308;2023-04-29T05:39:24;19.27;;;13.57;;
15858;SDS011;8029;52.202;7.308;2023-04-29T05:41:50;18.48;;;14.25;;
15858;SDS011;8029;52.202;7.308;2023-04-29T05:44:16;14.15;;;11.23;;
15858;SDS011;8029;52.202;7.308;2023-04-29T05:46:43;22.92;;;13.30;;
15858;SDS011;8029;52.202;7.308;2023-04-29T05:49:10;15.52;;;12.18;;
15858;SDS011;8029;52.202;7.308;2023-04-29T05:51:36;14.93;;;13.32;;
15858;SDS011;8029;52.202;7.308;2023-04-29T05:54:02;18.77;;;13.27;;
15858;SDS011;8029;52.202;7.308;2023-04-29T05:56:31;19.08;;;13.40;;
15858;SDS011;8029;52.202;7.308;2023-04-29T05:58:57;15.75;;;13.38;;
15858;SDS011;8029;52.202;7.308;2023-04-29T06:01:26;15.88;;;13.73;;
15858;SDS011;8029;52.202;7.308;2023-04-29T06:03:52;28.90;;;12.48;;
15858;SDS011;8029;52.202;7.308;2023-04-29T06:06:18;18.80;;;12.90;;
15858;SDS011;8029;52.202;7.308;2023-04-29T06:08:44;14.95;;;12.95;;
15858;SDS011;8029;52.202;7.308;2023-04-29T06:11:10;13.00;;;11.25;;
15858;SDS011;8029;52.202;7.308;2023-04-29T06:13:36;13.40;;;11.93;;
15858;SDS011;8029;52.202;7.308;2023-04-29T06:16:02;14.30;;;11.70;;
15858;SDS011;8029;52.202;7.308;2023-04-29T06:18:28;22.13;;;12.10;;
15858;SDS011;8029;52.202;7.308;2023-04-29T06:20:54;18.63;;;12.57;;
15858;SDS011;8029;52.202;7.308;2023-04-29T06:23:20;15.07;;;13.05;;
15858;SDS011;8029;52.202;7.308;2023-04-29T06:25:46;15.82;;;13.23;;
15858;SDS011;8029;52.202;7.308;2023-04-29T06:28:12;14.75;;;13.00;;
15858;SDS011;8029;52.202;7.308;2023-04-29T06:30:38;13.75;;;12.27;;
15858;SDS011;8029;52.202;7.308;2023-04-29T06:33:11;12.77;;;11.40;;
15858;SDS011;8029;52.202;7.308;2023-04-29T06:35:38;21.27;;;14.38;;
15858;SDS011;8029;52.202;7.308;2023-04-29T06:38:05;13.57;;;11.20;;
15858;SDS011;8029;52.202;7.308;2023-04-29T06:40:33;12.45;;;11.10;;
15858;SDS011;8029;52.202;7.308;2023-04-29T06:42:59;18.55;;;10.80;;
15858;SDS011;8029;52.202;7.308;2023-04-29T06:45:26;16.52;;;11.90;;
15858;SDS011;8029;52.202;7.308;2023-04-29T06:47:52;15.63;;;12.30;;
15858;SDS011;8029;52.202;7.308;2023-04-29T06:50:18;16.98;;;12.40;;
15858;SDS011;8029;52.202;7.308;2023-04-29T06:52:44;12.77;;;10.38;;
15858;SDS011;8029;52.202;7.308;2023-04-29T06:55:10;16.20;;;11.85;;
15858;SDS011;8029;52.202;7.308;2023-04-29T06:57:36;17.83;;;12.07;;
15858;SDS011;8029;52.202;7.308;2023-04-29T07:00:03;10.63;;;8.85;;
15858;SDS011;8029;52.202;7.308;2023-04-29T07:02:29;12.63;;;10.40;;
15858;SDS011;8029;52.202;7.308;2023-04-29T07:04:55;11.50;;;10.30;;
15858;SDS011;8029;52.202;7.308;2023-04-29T07:07:21;11.55;;;10.35;;
15858;SDS011;8029;52.202;7.308;2023-04-29T07:09:47;13.05;;;9.98;;
15858;SDS011;8029;52.202;7.308;2023-04-29T07:12:15;12.20;;;10.70;;
15858;SDS011;8029;52.202;7.308;2023-04-29T07:14:41;12.00;;;9.52;;
15858;SDS011;8029;52.202;7.308;2023-04-29T07:17:07;18.00;;;10.85;;
15858;SDS011;8029;52.202;7.308;2023-04-29T07:19:33;15.30;;;10.38;;
15858;SDS011;8029;52.202;7.308;2023-04-29T07:21:59;12.85;;;8.85;;
15858;SDS011;8029;52.202;7.308;2023-04-29T07:24:26;21.30;;;11.30;;
15858;SDS011;8029;52.202;7.308;2023-04-29T07:26:52;17.08;;;10.00;;
15858;SDS011;8029;52.202;7.308;2023-04-29T07:29:18;14.50;;;10.80;;
15858;SDS011;8029;52.202;7.308;2023-04-29T07:31:44;10.18;;;9.10;;
15858;SDS011;8029;52.202;7.308;2023-04-29T07:34:10;15.15;;;8.75;;
15858;SDS011;8029;52.202;7.308;2023-04-29T07:36:36;10.98;;;9.00;;
15858;SDS011;8029;52.202;7.308;2023-04-29T07:39:03;9.80;;;8.35;;
15858;SDS011;8029;52.202;7.308;2023-04-29T07:41:29;14.32;;;8.63;;
15858;SDS011;8029;52.202;7.308;2023-04-29T07:43:55;12.25;;;9.20;;
15858;SDS011;8029;52.202;7.308;2023-04-29T07:46:21;10.88;;;8.93;;
15858;SDS011;8029;52.202;7.308;2023-04-29T07:48:47;9.27;;;8.38;;
15858;SDS011;8029;52.202;7.308;2023-04-29T07:51:13;13.10;;;9.57;;
15858;SDS011;8029;52.202;7.308;2023-04-29T07:53:40;10.82;;;8.07;;
15858;SDS011;8029;52.202;7.308;2023-04-29T07:56:06;11.00;;;8.95;;
15858;SDS011;8029;52.202;7.308;2023-04-29T07:58:32;10.93;;;9.15;;
15858;SDS011;8029;52.202;7.308;2023-04-29T08:01:08;13.05;;;9.43;;
15858;SDS011;8029;52.202;7.308;2023-04-29T08:03:35;13.80;;;10.30;;
15858;SDS011;8029;52.202;7.308;2023-04-29T08:06:04;10.80;;;8.57;;
15858;SDS011;8029;52.202;7.308;2023-04-29T08:08:31;10.98;;;8.68;;
15858;SDS011;8029;52.202;7.308;2023-04-29T08:10:57;13.30;;;8.32;;
15858;SDS011;8029;52.202;7.308;2023-04-29T08:13:23;9.15;;;7.80;;
15858;SDS011;8029;52.202;7.308;2023-04-29T08:15:49;10.15;;;8.23;;
15858;SDS011;8029;52.202;7.308;2023-04-29T08:18:16;8.88;;;6.60;;
15858;SDS011;8029;52.202;7.308;2023-04-29T08:20:42;8.48;;;7.40;;
15858;SDS011;8029;52.202;7.308;2023-04-29T08:23:08;11.88;;;8.55;;
15858;SDS011;8029;52.202;7.308;2023-04-29T08:25:35;8.80;;;7.80;;
15858;SDS011;8029;52.202;7.308;2023-04-29T08:28:01;8.00;;;7.20;;
15858;SDS011;8029;52.202;7.308;2023-04-29T08:30:27;10.20;;;8.15;;
15858;SDS011;8029;52.202;7.308;2023-04-29T08:32:53;10.18;;;8.93;;
15858;SDS011;8029;52.202;7.308;2023-04-29T08:35:19;8.52;;;7.38;;
15858;SDS011;8029;52.202;7.308;2023-04-29T08:37:45;15.23;;;8.00;;
15858;SDS011;8029;52.202;7.308;2023-04-29T08:40:11;8.77;;;7.05;;
15858;SDS011;8029;52.202;7.308;2023-04-29T08:42:38;15.38;;;7.10;;
15858;SDS011;8029;52.202;7.308;2023-04-29T08:45:04;9.95;;;6.65;;
15858;SDS011;8029;52.202;7.308;2023-04-29T08:47:32;7.68;;;6.45;;
15858;SDS011;8029;52.202;7.308;2023-04-29T08:50:00;14.98;;;6.53;;
15858;SDS011;8029;52.202;7.308;2023-04-29T08:52:28;8.25;;;6.40;;
15858;SDS011;8029;52.202;7.308;2023-04-29T08:54:54;9.80;;;8.82;;
15858;SDS011;8029;52.202;7.308;2023-04-29T08:57:20;8.57;;;6.82;;
15858;SDS011;8029;52.202;7.308;2023-04-29T08:59:47;8.27;;;5.63;;
15858;SDS011;8029;52.202;7.308;2023-04-29T09:02:14;11.57;;;6.82;;
15858;SDS011;8029;52.202;7.308;2023-04-29T09:04:58;7.53;;;6.30;;
15858;SDS011;8029;52.202;7.308;2023-04-29T09:07:26;7.90;;;6.57;;
15858;SDS011;8029;52.202;7.308;2023-04-29T09:09:52;6.95;;;6.05;;
15858;SDS011;8029;52.202;7.308;2023-04-29T09:12:19;10.25;;;7.75;;
15858;SDS011;8029;52.202;7.308;2023-04-29T09:14:45;6.13;;;5.55;;
15858;SDS011;8029;52.202;7.308;2023-04-29T09:17:11;7.28;;;6.07;;
15858;SDS011;8029;52.202;7.308;2023-04-29T09:19:40;6.03;;;4.75;;
15858;SDS011;8029;52.202;7.308;2023-04-29T09:22:06;7.03;;;5.25;;
15858;SDS011;8029;52.202;7.308;2023-04-29T09:24:32;7.65;;;6.53;;
15858;SDS011;8029;52.202;7.308;2023-04-29T09:26:59;15.38;;;6.63;;
15858;SDS011;8029;52.202;7.308;2023-04-29T09:29:25;8.43;;;6.72;;
15858;SDS011;8029;52.202;7.308;2023-04-29T09:31:51;6.70;;;5.32;;
15858;SDS011;8029;52.202;7.308;2023-04-29T09:34:17;7.43;;;6.03;;
15858;SDS011;8029;52.202;7.308;2023-04-29T09:36:55;10.75;;;6.45;;
15858;SDS011;8029;52.202;7.308;2023-04-29T09:39:23;4.85;;;4.22;;
15858;SDS011;8029;52.202;7.308;2023-04-29T09:44:15;7.47;;;6.35;;
15858;SDS011;8029;52.202;7.308;2023-04-29T09:46:41;7.40;;;6.07;;
15858;SDS011;8029;52.202;7.308;2023-04-29T09:49:28;6.07;;;4.88;;
15858;SDS011;8029;52.202;7.308;2023-04-29T09:51:54;11.50;;;5.57;;
15858;SDS011;8029;52.202;7.308;2023-04-29T09:54:21;7.97;;;5.60;;
15858;SDS011;8029;52.202;7.308;2023-04-29T09:56:51;6.47;;;4.78;;
15858;SDS011;8029;52.202;7.308;2023-04-29T09:59:17;8.18;;;4.97;;
15858;SDS011;8029;52.202;7.308;2023-04-29T10:01:45;9.25;;;6.10;;
15858;SDS011;8029;52.202;7.308;2023-04-29T10:04:12;7.65;;;5.55;;
15858;SDS011;8029;52.202;7.308;2023-04-29T10:06:40;7.00;;;4.75;;
15858;SDS011;8029;52.202;7.308;2023-04-29T10:09:07;6.00;;;5.03;;
15858;SDS011;8029;52.202;7.308;2023-04-29T10:11:40;11.32;;;6.53;;
15858;SDS011;8029;52.202;7.308;2023-04-29T10:14:09;8.65;;;5.93;;
15858;SDS011;8029;52.202;7.308;2023-04-29T10:16:38;6.43;;;5.82;;
15858;SDS011;8029;52.202;7.308;2023-04-29T10:19:10;8.30;;;5.63;;
15858;SDS011;8029;52.202;7.308;2023-04-29T10:21:37;5.07;;;4.57;;
15858;SDS011;8029;52.202;7.308;2023-04-29T10:24:03;7.40;;;5.50;;
15858;SDS011;8029;52.202;7.308;2023-04-29T10:26:30;7.78;;;5.72;;
15858;SDS011;8029;52.202;7.308;2023-04-29T10:28:56;7.10;;;4.55;;
15858;SDS011;8029;52.202;7.308;2023-04-29T10:31:27;6.45;;;3.92;;
15858;SDS011;8029;52.202;7.308;2023-04-29T10:33:54;7.55;;;5.32;;
15858;SDS011;8029;52.202;7.308;2023-04-29T10:36:21;10.10;;;5.55;;
15858;SDS011;8029;52.202;7.308;2023-04-29T10:38:50;5.78;;;5.18;;
15858;SDS011;8029;52.202;7.308;2023-04-29T10:41:21;7.53;;;5.78;;
15858;SDS011;8029;52.202;7.308;2023-04-29T10:43:52;10.35;;;5.50;;
15858;SDS011;8029;52.202;7.308;2023-04-29T10:46:22;15.45;;;5.22;;
15858;SDS011;8029;52.202;7.308;2023-04-29T10:48:49;5.10;;;4.30;;
15858;SDS011;8029;52.202;7.308;2023-04-29T10:51:29;4.85;;;4.32;;
15858;SDS011;8029;52.202;7.308;2023-04-29T10:54:16;3.92;;;3.63;;
15858;SDS011;8029;52.202;7.308;2023-04-29T10:56:52;7.53;;;4.72;;
15858;SDS011;8029;52.202;7.308;2023-04-29T10:59:20;8.68;;;3.78;;
15858;SDS011;8029;52.202;7.308;2023-04-29T11:01:47;4.78;;;4.15;;
15858;SDS011;8029;52.202;7.308;2023-04-29T11:04:14;4.78;;;3.92;;
15858;SDS011;8029;52.202;7.308;2023-04-29T11:06:41;7.25;;;4.95;;
15858;SDS011;8029;52.202;7.308;2023-04-29T11:14:23;5.50;;;4.05;;
15858;SDS011;8029;52.202;7.308;2023-04-29T11:16:51;5.50;;;3.40;;
15858;SDS011;8029;52.202;7.308;2023-04-29T11:19:17;5.15;;;4.03;;
15858;SDS011;8029;52.202;7.308;2023-04-29T11:21:44;6.03;;;4.70;;
15858;SDS011;8029;52.202;7.308;2023-04-29T11:24:11;7.22;;;4.10;;
15858;SDS011;8029;52.202;7.308;2023-04-29T11:26:39;6.03;;;3.83;;
15858;SDS011;8029;52.202;7.308;2023-04-29T11:29:05;6.72;;;4.60;;
15858;SDS011;8029;52.202;7.308;2023-04-29T11:31:34;5.97;;;3.90;;
15858;SDS011;8029;52.202;7.308;2023-04-29T11:34:04;3.83;;;2.80;;
15858;SDS011;8029;52.202;7.308;2023-04-29T11:36:31;3.33;;;3.03;;
15858;SDS011;8029;52.202;7.308;2023-04-29T11:39:01;4.68;;;4.10;;
15858;SDS011;8029;52.202;7.308;2023-04-29T11:41:28;4.50;;;3.58;;
15858;SDS011;8029;52.202;7.308;2023-04-29T11:43:56;3.15;;;2.90;;
15858;SDS011;8029;52.202;7.308;2023-04-29T11:46:22;4.15;;;3.58;;
15858;SDS011;8029;52.202;7.308;2023-04-29T11:48:48;6.97;;;4.15;;
15858;SDS011;8029;52.202;7.308;2023-04-29T11:51:15;5.90;;;3.92;;
15858;SDS011;8029;52.202;7.308;2023-04-29T11:53:42;4.53;;;3.10;;
15858;SDS011;8029;52.202;7.308;2023-04-29T11:56:08;6.03;;;4.55;;
15858;SDS011;8029;52.202;7.308;2023-04-29T11:58:35;2.78;;;2.58;;
15858;SDS011;8029;52.202;7.308;2023-04-29T12:01:02;5.88;;;3.78;;
15858;SDS011;8029;52.202;7.308;2023-04-29T12:03:28;3.35;;;2.90;;
15858;SDS011;8029;52.202;7.308;2023-04-29T12:05:54;7.00;;;2.83;;
15858;SDS011;8029;52.202;7.308;2023-04-29T12:08:21;3.55;;;2.60;;
15858;SDS011;8029;52.202;7.308;2023-04-29T12:10:47;2.72;;;2.50;;
15858;SDS011;8029;52.202;7.308;2023-04-29T12:13:14;3.08;;;2.80;;
15858;SDS011;8029;52.202;7.308;2023-04-29T12:15:40;2.97;;;2.47;;
15858;SDS011;8029;52.202;7.308;2023-04-29T12:18:07;3.65;;;3.08;;
15858;SDS011;8029;52.202;7.308;2023-04-29T12:20:33;3.42;;;3.10;;
15858;SDS011;8029;52.202;7.308;2023-04-29T12:23:16;3.85;;;3.45;;
15858;SDS011;8029;52.202;7.308;2023-04-29T12:25:47;3.17;;;2.83;;
15858;SDS011;8029;52.202;7.308;2023-04-29T12:28:14;2.85;;;2.55;;
15858;SDS011;8029;52.202;7.308;2023-04-29T12:30:42;3.78;;;2.97;;
15858;SDS011;8029;52.202;7.308;2023-04-29T12:33:08;3.92;;;3.13;;
15858;SDS011;8029;52.202;7.308;2023-04-29T12:35:35;6.18;;;3.45;;
15858;SDS011;8029;52.202;7.308;2023-04-29T12:38:01;3.28;;;2.72;;
15858;SDS011;8029;52.202;7.308;2023-04-29T12:40:27;4.90;;;3.25;;
15858;SDS011;8029;52.202;7.308;2023-04-29T12:42:53;7.22;;;2.90;;
15858;SDS011;8029;52.202;7.308;2023-04-29T12:45:26;3.80;;;3.25;;
15858;SDS011;8029;52.202;7.308;2023-04-29T12:47:54;3.78;;;3.15;;
15858;SDS011;8029;52.202;7.308;2023-04-29T12:50:27;4.03;;;2.42;;
15858;SDS011;8029;52.202;7.308;2023-04-29T12:52:53;4.95;;;2.75;;
15858;SDS011;8029;52.202;7.308;2023-04-29T12:55:20;4.97;;;2.28;;
15858;SDS011;8029;52.202;7.308;2023-04-29T12:57:46;4.28;;;3.17;;
15858;SDS011;8029;52.202;7.308;2023-04-29T13:00:12;5.55;;;2.58;;
15858;SDS011;8029;52.202;7.308;2023-04-29T13:02:39;5.20;;;3.80;;
15858;SDS011;8029;52.202;7.308;2023-04-29T13:05:05;3.00;;;2.70;;
15858;SDS011;8029;52.202;7.308;2023-04-29T13:07:32;3.65;;;2.60;;
15858;SDS011;8029;52.202;7.308;2023-04-29T13:09:58;2.80;;;2.55;;
15858;SDS011;8029;52.202;7.308;2023-04-29T13:12:26;4.32;;;3.33;;
15858;SDS011;8029;52.202;7.308;2023-04-29T13:14:52;2.95;;;2.60;;
15858;SDS011;8029;52.202;7.308;2023-04-29T13:17:18;5.13;;;2.47;;
15858;SDS011;8029;52.202;7.308;2023-04-29T13:19:44;3.40;;;2.90;;
15858;SDS011;8029;52.202;7.308;2023-04-29T13:22:10;3.13;;;2.83;;
15858;SDS011;8029;52.202;7.308;2023-04-29T13:24:36;3.83;;;2.95;;
15858;SDS011;8029;52.202;7.308;2023-04-29T13:27:02;2.58;;;2.13;;
15858;SDS011;8029;52.202;7.308;2023-04-29T13:29:29;2.10;;;2.00;;
15858;SDS011;8029;52.202;7.308;2023-04-29T13:31:55;2.28;;;1.95;;
15858;SDS011;8029;52.202;7.308;2023-04-29T13:34:21;1.92;;;1.58;;
15858;SDS011;8029;52.202;7.308;2023-04-29T13:36:48;1.88;;;1.70;;
15858;SDS011;8029;52.202;7.308;2023-04-29T13:39:14;2.20;;;1.92;;
15858;SDS011;8029;52.202;7.308;2023-04-29T13:41:41;2.53;;;2.33;;
15858;SDS011;8029;52.202;7.308;2023-04-29T13:44:07;2.35;;;1.90;;
15858;SDS011;8029;52.202;7.308;2023-04-29T13:46:33;2.85;;;1.98;;
15858;SDS011;8029;52.202;7.308;2023-04-29T13:48:59;3.58;;;2.75;;
15858;SDS011;8029;52.202;7.308;2023-04-29T13:51:26;5.72;;;2.28;;
15858;SDS011;8029;52.202;7.308;2023-04-29T13:53:52;2.22;;;2.03;;
15858;SDS011;8029;52.202;7.308;2023-04-29T13:56:18;2.67;;;2.20;;
15858;SDS011;8029;52.202;7.308;2023-04-29T13:58:44;2.38;;;1.75;;
15858;SDS011;8029;52.202;7.308;2023-04-29T14:01:11;2.28;;;2.08;;
15858;SDS011;8029;52.202;7.308;2023-04-29T14:03:37;1.48;;;1.38;;
15858;SDS011;8029;52.202;7.308;2023-04-29T14:06:03;1.80;;;1.42;;
15858;SDS011;8029;52.202;7.308;2023-04-29T14:08:30;2.47;;;2.08;;
15858;SDS011;8029;52.202;7.308;2023-04-29T14:10:56;1.42;;;1.33;;
15858;SDS011;8029;52.202;7.308;2023-04-29T14:13:22;2.22;;;2.03;;
15858;SDS011;8029;52.202;7.308;2023-04-29T14:15:48;2.78;;;2.15;;
15858;SDS011;8029;52.202;7.308;2023-04-29T14:18:14;1.80;;;1.70;;
15858;SDS011;8029;52.202;7.308;2023-04-29T14:20:40;3.38;;;2.30;;
15858;SDS011;8029;52.202;7.308;2023-04-29T14:23:06;2.13;;;2.00;;
15858;SDS011;8029;52.202;7.308;2023-04-29T14:25:32;1.60;;;1.50;;
15858;SDS011;8029;52.202;7.308;2023-04-29T14:27:58;3.33;;;2.63;;
15858;SDS011;8029;52.202;7.308;2023-04-29T14:30:24;1.45;;;1.35;;
15858;SDS011;8029;52.202;7.308;2023-04-29T14:32:50;1.88;;;1.70;;
15858;SDS011;8029;52.202;7.308;2023-04-29T14:35:16;1.65;;;1.55;;
15858;SDS011;8029;52.202;7.308;2023-04-29T14:37:42;2.90;;;2.15;;
15858;SDS011;8029;52.202;7.308;2023-04-29T14:40:08;4.70;;;1.95;;
15858;SDS011;8029;52.202;7.308;2023-04-29T14:42:34;2.17;;;1.92;;
15858;SDS011;8029;52.202;7.308;2023-04-29T14:45:00;1.92;;;1.80;;
15858;SDS011;8029;52.202;7.308;2023-04-29T14:47:27;1.17;;;1.17;;
15858;SDS011;8029;52.202;7.308;2023-04-29T14:49:53;2.17;;;1.95;;
15858;SDS011;8029;52.202;7.308;2023-04-29T14:52:20;4.10;;;1.83;;
15858;SDS011;8029;52.202;7.308;2023-04-29T14:54:46;2.25;;;2.00;;
15858;SDS011;8029;52.202;7.308;2023-04-29T14:57:12;2.33;;;1.88;;
15858;SDS011;8029;52.202;7.308;2023-04-29T14:59:38;2.45;;;2.10;;
15858;SDS011;8029;52.202;7.308;2023-04-29T15:02:05;2.63;;;2.42;;
15858;SDS011;8029;52.202;7.308;2023-04-29T15:04:31;5.32;;;2.17;;
15858;SDS011;8029;52.202;7.308;2023-04-29T15:06:58;3.45;;;2.22;;